createdAt,value
2019-05-25T00:00:32.341Z,10.13
2019-05-25T00:05:28.171Z,11.50
2019-05-25T00:10:23.883Z,11.00
2019-05-25T00:15:19.604Z,11.97
2019-05-25T00:20:15.297Z,11.83
2019-05-25T00:25:11.437Z,12.87
2019-05-25T00:30:07.700Z,11.87
2019-05-25T00:35:04.211Z,11.83
2019-05-25T00:40:00.061Z,12.37
2019-05-25T00:44:55.771Z,12.60
2019-05-25T00:49:51.691Z,11.87
2019-05-25T00:54:47.389Z,11.37
2019-05-25T00:59:43.107Z,12.87
2019-05-25T01:04:38.808Z,11.27
2019-05-25T01:09:34.887Z,12.20
2019-05-25T01:14:30.694Z,12.40
2019-05-25T01:19:26.509Z,11.90
2019-05-25T01:24:22.498Z,14.17
2019-05-25T01:29:18.225Z,11.93
2019-05-25T01:34:13.939Z,12.50
2019-05-25T01:39:09.638Z,12.23
2019-05-25T01:44:05.351Z,11.83
2019-05-25T01:49:01.069Z,14.00
2019-05-25T01:53:56.805Z,14.20
2019-05-25T01:58:52.606Z,13.40
2019-05-25T02:03:48.322Z,14.27
2019-05-25T02:08:44.038Z,14.17
2019-05-25T02:13:39.833Z,16.43
2019-05-25T02:18:35.927Z,12.27
2019-05-25T02:23:31.731Z,13.03
2019-05-25T02:28:27.596Z,12.27
2019-05-25T02:33:23.557Z,12.87
2019-05-25T02:38:19.526Z,12.10
2019-05-25T02:43:15.507Z,14.47
2019-05-25T02:48:11.470Z,12.73
2019-05-25T02:53:07.446Z,12.87
2019-05-25T02:58:03.425Z,13.30
2019-05-25T03:02:59.460Z,12.43
2019-05-25T03:07:55.526Z,14.43
2019-05-25T03:12:52.442Z,12.37
2019-05-25T03:17:48.632Z,13.23
2019-05-25T03:22:44.722Z,15.83
2019-05-25T03:27:40.670Z,13.90
2019-05-25T03:32:36.954Z,13.83
2019-05-25T03:37:32.976Z,14.67
2019-05-25T03:42:28.795Z,17.50
2019-05-25T03:47:24.662Z,13.17
2019-05-25T03:52:20.521Z,13.00
2019-05-25T03:57:16.396Z,13.07
2019-05-25T04:02:12.295Z,15.13
2019-05-25T04:07:08.623Z,14.20
2019-05-25T04:12:04.493Z,13.73
2019-05-25T04:17:00.366Z,13.37
2019-05-25T04:21:56.333Z,13.07
2019-05-25T04:26:52.316Z,14.00
2019-05-25T04:31:48.529Z,12.97
2019-05-25T04:36:44.516Z,12.80
2019-05-25T04:41:40.815Z,13.07
2019-05-25T04:46:36.676Z,13.27
2019-05-25T04:51:32.637Z,13.73
2019-05-25T04:56:39.086Z,14.53
2019-05-25T05:01:26.367Z,14.50
2019-05-25T05:06:22.385Z,12.30
2019-05-25T05:11:18.251Z,15.27
2019-05-25T05:16:14.420Z,14.93
2019-05-25T05:21:10.377Z,13.93
2019-05-25T05:26:06.240Z,13.83
2019-05-25T05:31:02.106Z,13.77
2019-05-25T05:35:58.938Z,14.17
2019-05-25T05:40:56.343Z,13.70
2019-05-25T05:45:53.711Z,13.47
2019-05-25T05:50:51.673Z,12.73
2019-05-25T05:55:47.545Z,13.37
2019-05-25T06:00:43.423Z,13.23
2019-05-25T06:05:39.420Z,11.90
2019-05-25T06:10:35.333Z,11.37
2019-05-25T06:15:31.258Z,12.93
2019-05-25T06:20:27.122Z,12.10
2019-05-25T06:25:23.099Z,13.07
2019-05-25T06:30:19.630Z,12.90
2019-05-25T06:35:16.566Z,13.03
2019-05-25T06:40:12.478Z,13.80
2019-05-25T06:45:08.907Z,13.40
2019-05-25T06:50:05.666Z,14.53
2019-05-25T06:55:01.935Z,13.93
2019-05-25T06:59:57.990Z,13.13
2019-05-25T07:04:54.206Z,12.90
2019-05-25T07:09:50.060Z,12.73
2019-05-25T07:14:45.937Z,12.30
2019-05-25T07:19:41.903Z,12.53
2019-05-25T07:24:38.275Z,13.18
2019-05-25T07:29:34.142Z,10.32
2019-05-25T07:34:30.097Z,10.40
2019-05-25T07:39:26.097Z,9.93
2019-05-25T07:44:22.302Z,7.92
2019-05-25T07:49:18.172Z,9.15
2019-05-25T07:54:14.434Z,10.50
2019-05-25T07:59:10.444Z,7.12
2019-05-25T08:04:06.337Z,7.42
2019-05-25T08:09:04.517Z,6.62
2019-05-25T08:14:00.894Z,6.12
2019-05-25T08:18:56.790Z,6.42
2019-05-25T08:23:52.745Z,6.60
2019-05-25T08:28:49.076Z,8.08
2019-05-25T08:33:45.051Z,7.00
2019-05-25T08:38:41.148Z,6.75
2019-05-25T08:43:37.202Z,7.45
2019-05-25T08:48:33.093Z,9.83
2019-05-25T08:53:40.548Z,12.43
2019-05-25T08:58:27.063Z,8.55
2019-05-25T09:03:22.940Z,6.60
2019-05-25T09:08:18.811Z,7.50
2019-05-25T09:13:14.740Z,6.00
2019-05-25T09:18:10.718Z,8.43
2019-05-25T09:23:07.027Z,9.73
2019-05-25T09:28:02.997Z,8.70
2019-05-25T09:32:58.976Z,9.80
2019-05-25T09:37:54.842Z,7.58
2019-05-25T09:42:50.967Z,6.80
2019-05-25T09:47:46.902Z,8.23
2019-05-25T09:52:42.876Z,8.75
2019-05-25T09:57:41.527Z,7.60
2019-05-25T10:02:36.825Z,8.45
2019-05-25T10:07:32.699Z,6.30
2019-05-25T10:12:28.566Z,12.90
2019-05-25T10:17:24.635Z,9.65
2019-05-25T10:22:20.568Z,5.50
2019-05-25T10:27:16.447Z,6.95
2019-05-25T10:32:12.420Z,16.07
2019-05-25T10:37:08.278Z,7.55
2019-05-25T10:42:04.380Z,5.85
2019-05-25T10:47:00.276Z,7.25
2019-05-25T10:51:56.630Z,8.30
2019-05-25T10:56:52.875Z,6.58
2019-05-25T11:01:48.859Z,7.37
2019-05-25T11:07:04.654Z,15.50
2019-05-25T11:12:00.640Z,7.35
2019-05-25T11:16:56.512Z,11.03
2019-05-25T11:21:52.374Z,12.40
2019-05-25T11:26:48.570Z,11.18
2019-05-25T11:31:54.026Z,12.15
2019-05-25T11:36:42.184Z,8.58
2019-05-25T11:41:38.208Z,8.18
2019-05-25T11:46:34.187Z,19.20
2019-05-25T11:51:30.062Z,6.80
2019-05-25T11:56:27.108Z,5.97
2019-05-25T12:01:23.212Z,10.88
2019-05-25T12:06:19.094Z,5.50
2019-05-25T12:11:15.047Z,7.05
2019-05-25T12:16:11.109Z,4.85
2019-05-25T12:21:07.078Z,4.40
2019-05-25T12:26:03.128Z,8.53
2019-05-25T12:30:58.954Z,5.55
2019-05-25T12:35:54.927Z,11.08
2019-05-25T12:40:53.549Z,5.12
2019-05-25T12:45:48.677Z,4.12
2019-05-25T12:50:44.643Z,3.30
2019-05-25T12:55:40.642Z,3.85
2019-05-25T13:00:36.596Z,3.92
2019-05-25T13:05:34.505Z,6.40
2019-05-25T13:10:30.482Z,4.95
2019-05-25T13:15:26.342Z,4.90
2019-05-25T13:20:22.218Z,8.88
2019-05-25T13:25:18.169Z,4.92
2019-05-25T13:30:14.963Z,8.85
2019-05-25T13:35:11.042Z,4.65
2019-05-25T13:40:07.634Z,12.98
2019-05-25T13:45:06.924Z,3.42
2019-05-25T13:50:05.037Z,23.65
2019-05-25T13:55:01.008Z,5.45
2019-05-25T13:59:56.871Z,6.92
2019-05-25T14:04:52.765Z,12.95
2019-05-25T14:09:48.617Z,8.73
2019-05-25T14:14:44.847Z,7.03
2019-05-25T14:19:41.618Z,15.75
2019-05-25T14:24:37.484Z,7.58
2019-05-25T14:29:33.777Z,7.42
2019-05-25T14:34:29.771Z,7.03
2019-05-25T14:39:25.667Z,6.03
2019-05-25T14:44:21.513Z,6.50
2019-05-25T14:49:17.367Z,10.45
2019-05-25T14:54:13.235Z,5.92
2019-05-25T14:59:09.197Z,5.28
2019-05-25T15:04:05.178Z,4.60
2019-05-25T15:09:01.133Z,5.58
2019-05-25T15:13:57.032Z,4.22
2019-05-25T15:18:53.281Z,5.22
2019-05-25T15:23:49.156Z,7.62
2019-05-25T15:28:45.259Z,5.87
2019-05-25T15:33:41.249Z,6.03
2019-05-25T15:38:37.118Z,11.08
2019-05-25T15:43:33.067Z,14.33
2019-05-25T15:48:29.059Z,9.80
2019-05-25T15:53:25.028Z,11.28
2019-05-25T15:58:20.993Z,10.15
2019-05-25T16:03:17.379Z,11.80
2019-05-25T16:08:13.354Z,8.83
2019-05-25T16:13:09.334Z,7.33
2019-05-25T16:18:05.282Z,5.50
2019-05-25T16:23:01.153Z,5.67
2019-05-25T16:27:57.237Z,6.25
2019-05-25T16:33:12.363Z,8.08
2019-05-25T16:37:51.102Z,9.17
2019-05-25T16:42:47.500Z,10.70
2019-05-25T16:47:43.470Z,16.30
2019-05-25T16:52:39.460Z,12.87
2019-05-25T16:57:35.454Z,10.90
2019-05-25T17:02:31.707Z,10.47
2019-05-25T17:07:27.937Z,11.57
2019-05-25T17:12:23.819Z,10.23
2019-05-25T17:17:20.154Z,10.27
2019-05-25T17:22:16.156Z,10.70
2019-05-25T17:27:12.194Z,10.40
2019-05-25T17:32:08.187Z,15.00
2019-05-25T17:37:04.168Z,14.60
2019-05-25T17:42:00.140Z,12.53
2019-05-25T17:46:56.140Z,10.95
2019-05-25T17:51:52.622Z,11.33
2019-05-25T17:56:48.647Z,12.57
2019-05-25T18:01:44.623Z,12.87
2019-05-25T18:06:40.640Z,13.00
2019-05-25T18:11:36.617Z,13.90
2019-05-25T18:16:32.500Z,12.90
2019-05-25T18:21:28.416Z,13.20
2019-05-25T18:26:24.360Z,13.97
2019-05-25T18:31:20.579Z,12.80
2019-05-25T18:36:16.504Z,15.23
2019-05-25T18:41:12.832Z,12.33
2019-05-25T18:46:09.296Z,13.20
2019-05-25T18:51:05.281Z,12.93
2019-05-25T18:56:01.771Z,12.97
2019-05-25T19:00:57.751Z,14.67
2019-05-25T19:05:53.632Z,12.80
2019-05-25T19:10:49.890Z,12.77
2019-05-25T19:15:45.880Z,16.70
2019-05-25T19:20:41.846Z,14.73
2019-05-25T19:25:37.700Z,14.03
2019-05-25T19:30:33.569Z,15.10
2019-05-25T19:35:29.530Z,17.10
2019-05-25T19:40:25.489Z,17.63
2019-05-25T19:45:21.499Z,18.00
2019-05-25T19:50:17.976Z,18.30
2019-05-25T19:55:14.890Z,18.53
2019-05-25T20:00:11.097Z,18.07
2019-05-25T20:05:16.190Z,16.77
2019-05-25T20:10:06.248Z,18.37
2019-05-25T20:15:02.607Z,19.03
2019-05-25T20:19:58.537Z,19.43
2019-05-25T20:24:54.403Z,18.57
2019-05-25T20:29:50.856Z,17.70
2019-05-25T20:34:46.721Z,17.07
2019-05-25T20:39:42.687Z,20.00
2019-05-25T20:44:38.564Z,19.07
2019-05-25T20:49:34.426Z,16.97
2019-05-25T20:54:30.402Z,15.93
2019-05-25T20:59:26.385Z,16.53
2019-05-25T21:04:22.298Z,17.83
2019-05-25T21:09:18.278Z,18.77
2019-05-25T21:14:14.494Z,21.30
2019-05-25T21:19:10.584Z,19.97
2019-05-25T21:24:06.705Z,23.77
2019-05-25T21:29:02.686Z,21.03
2019-05-25T21:33:58.661Z,20.07
2019-05-25T21:38:54.532Z,19.57
2019-05-25T21:43:50.426Z,18.13
2019-05-25T21:48:46.390Z,16.93
2019-05-25T21:53:42.258Z,17.23
2019-05-25T21:58:38.255Z,17.23
2019-05-25T22:03:34.218Z,16.90
2019-05-25T22:08:30.180Z,17.23
2019-05-25T22:13:28.802Z,15.30
2019-05-25T22:18:24.480Z,15.43
2019-05-25T22:23:20.443Z,18.70
2019-05-25T22:28:16.336Z,18.87
2019-05-25T22:33:12.290Z,19.80
2019-05-25T22:38:08.164Z,19.00
2019-05-25T22:43:04.031Z,17.93
2019-05-25T22:48:00.007Z,16.40
2019-05-25T22:52:55.880Z,18.40
2019-05-25T22:57:51.951Z,16.97
2019-05-25T23:02:47.942Z,18.37
2019-05-25T23:07:43.823Z,19.30
2019-05-25T23:12:39.716Z,20.17
2019-05-25T23:17:36.247Z,17.67
2019-05-25T23:22:32.409Z,18.27
2019-05-25T23:27:28.216Z,17.77
2019-05-25T23:32:23.941Z,17.20
2019-05-25T23:37:19.654Z,16.40
2019-05-25T23:42:15.367Z,15.73
2019-05-25T23:47:11.075Z,17.87
2019-05-25T23:52:07.153Z,16.17
2019-05-25T23:57:03.320Z,16.43
